Terminal Aerodrome Forecast
Issued by NWS Tampa Bay Area, FL

Current Version | Previous Version | Text Only | Print | Product List | Glossary On
Versions: 1 2 3 4 5 6 7 8 9 10 11 12 13 14 15 16 17 18 19 20 21 22 23 24 25
382
FTUS42 KTBW 301121
TAFTPA
TAF
KTPA 301121Z 3012/3112 VRB03KT P6SM SCT060 SCT250
     FM301400 25005KT P6SM SCT020 SCT250
     FM301700 28009KT P6SM SCT040 BKN250
     FM302200 30009KT P6SM SCT050 BKN250
     FM310200 VRB03KT P6SM FEW060 SCT250=

USA.gov is the U.S. government's official web portal to all federal, state and local government web resources and services.